sensor_id;sensor_type;location;lat;lon;timestamp;P1;durP1;ratioP1;P2;durP2;ratioP2
76591;SDS011;65481;47.600;19.682;2022-12-10T00:00:54;106.22;;;39.92;;
76591;SDS011;65481;47.600;19.682;2022-12-10T00:05:54;148.18;;;46.38;;
76591;SDS011;65481;47.600;19.682;2022-12-10T00:10:55;138.75;;;43.97;;
76591;SDS011;65481;47.600;19.682;2022-12-10T00:15:58;177.93;;;53.35;;
76591;SDS011;65481;47.600;19.682;2022-12-10T00:21:07;100.53;;;36.42;;
76591;SDS011;65481;47.600;19.682;2022-12-10T00:26:29;90.20;;;35.53;;
76591;SDS011;65481;47.600;19.682;2022-12-10T00:31:32;84.78;;;33.60;;
76591;SDS011;65481;47.600;19.682;2022-12-10T00:36:39;73.28;;;31.77;;
76591;SDS011;65481;47.600;19.682;2022-12-10T00:41:42;79.15;;;32.15;;
76591;SDS011;65481;47.600;19.682;2022-12-10T00:46:43;79.55;;;30.58;;
76591;SDS011;65481;47.600;19.682;2022-12-10T00:51:44;70.47;;;29.85;;
76591;SDS011;65481;47.600;19.682;2022-12-10T00:56:44;71.45;;;29.55;;
76591;SDS011;65481;47.600;19.682;2022-12-10T01:01:45;90.10;;;32.90;;
76591;SDS011;65481;47.600;19.682;2022-12-10T01:06:49;81.30;;;32.45;;
76591;SDS011;65481;47.600;19.682;2022-12-10T01:11:51;130.57;;;46.45;;
76591;SDS011;65481;47.600;19.682;2022-12-10T01:16:54;116.22;;;42.58;;
76591;SDS011;65481;47.600;19.682;2022-12-10T01:21:57;102.10;;;38.78;;
76591;SDS011;65481;47.600;19.682;2022-12-10T01:26:58;111.80;;;37.40;;
76591;SDS011;65481;47.600;19.682;2022-12-10T01:31:58;89.60;;;31.85;;
76591;SDS011;65481;47.600;19.682;2022-12-10T01:36:58;86.35;;;30.67;;
76591;SDS011;65481;47.600;19.682;2022-12-10T01:41:59;88.30;;;32.63;;
76591;SDS011;65481;47.600;19.682;2022-12-10T01:47:01;105.38;;;29.95;;
76591;SDS011;65481;47.600;19.682;2022-12-10T01:52:02;113.05;;;35.67;;
76591;SDS011;65481;47.600;19.682;2022-12-10T01:57:18;95.25;;;34.58;;
76591;SDS011;65481;47.600;19.682;2022-12-10T02:18:36;81.25;;;30.35;;
76591;SDS011;65481;47.600;19.682;2022-12-10T02:23:42;70.35;;;28.55;;
76591;SDS011;65481;47.600;19.682;2022-12-10T02:34:08;65.97;;;28.42;;
76591;SDS011;65481;47.600;19.682;2022-12-10T02:39:11;37.47;;;19.35;;
76591;SDS011;65481;47.600;19.682;2022-12-10T02:44:14;50.85;;;23.90;;
76591;SDS011;65481;47.600;19.682;2022-12-10T02:49:17;36.90;;;19.02;;
76591;SDS011;65481;47.600;19.682;2022-12-10T03:04:58;33.75;;;18.55;;
76591;SDS011;65481;47.600;19.682;2022-12-10T03:10:12;32.28;;;18.58;;
76591;SDS011;65481;47.600;19.682;2022-12-10T03:15:21;33.05;;;18.50;;
76591;SDS011;65481;47.600;19.682;2022-12-10T03:20:24;31.55;;;17.80;;
76591;SDS011;65481;47.600;19.682;2022-12-10T03:25:27;29.80;;;17.70;;
76591;SDS011;65481;47.600;19.682;2022-12-10T03:30:33;31.58;;;17.42;;
76591;SDS011;65481;47.600;19.682;2022-12-10T03:35:36;31.10;;;17.92;;
76591;SDS011;65481;47.600;19.682;2022-12-10T03:40:38;35.70;;;17.38;;
76591;SDS011;65481;47.600;19.682;2022-12-10T03:45:40;35.75;;;17.88;;
76591;SDS011;65481;47.600;19.682;2022-12-10T03:50:41;40.40;;;19.67;;
76591;SDS011;65481;47.600;19.682;2022-12-10T03:55:41;33.03;;;18.30;;
76591;SDS011;65481;47.600;19.682;2022-12-10T04:00:42;24.88;;;15.45;;
76591;SDS011;65481;47.600;19.682;2022-12-10T04:06:09;25.45;;;14.93;;
76591;SDS011;65481;47.600;19.682;2022-12-10T04:11:11;24.30;;;13.70;;
76591;SDS011;65481;47.600;19.682;2022-12-10T04:16:13;24.85;;;13.40;;
76591;SDS011;65481;47.600;19.682;2022-12-10T04:21:30;22.48;;;12.80;;
76591;SDS011;65481;47.600;19.682;2022-12-10T04:26:50;18.30;;;10.63;;
76591;SDS011;65481;47.600;19.682;2022-12-10T04:31:54;20.77;;;11.80;;
76591;SDS011;65481;47.600;19.682;2022-12-10T04:36:56;18.50;;;11.38;;
76591;SDS011;65481;47.600;19.682;2022-12-10T04:41:58;21.38;;;11.98;;
76591;SDS011;65481;47.600;19.682;2022-12-10T04:47:00;20.55;;;12.05;;
76591;SDS011;65481;47.600;19.682;2022-12-10T04:52:01;21.25;;;12.98;;
76591;SDS011;65481;47.600;19.682;2022-12-10T04:57:02;24.08;;;13.70;;
76591;SDS011;65481;47.600;19.682;2022-12-10T05:02:03;20.08;;;11.82;;
76591;SDS011;65481;47.600;19.682;2022-12-10T05:07:04;19.00;;;11.10;;
76591;SDS011;65481;47.600;19.682;2022-12-10T05:12:05;12.43;;;8.13;;
76591;SDS011;65481;47.600;19.682;2022-12-10T05:17:05;13.95;;;8.70;;
76591;SDS011;65481;47.600;19.682;2022-12-10T05:22:07;12.25;;;8.40;;
76591;SDS011;65481;47.600;19.682;2022-12-10T05:27:30;12.85;;;7.85;;
76591;SDS011;65481;47.600;19.682;2022-12-10T05:32:32;14.45;;;9.32;;
76591;SDS011;65481;47.600;19.682;2022-12-10T05:37:33;13.85;;;8.23;;
76591;SDS011;65481;47.600;19.682;2022-12-10T05:42:33;20.45;;;10.57;;
76591;SDS011;65481;47.600;19.682;2022-12-10T05:47:34;20.38;;;10.63;;
76591;SDS011;65481;47.600;19.682;2022-12-10T05:52:34;15.73;;;9.95;;
76591;SDS011;65481;47.600;19.682;2022-12-10T05:57:38;17.30;;;10.30;;
76591;SDS011;65481;47.600;19.682;2022-12-10T06:02:38;16.38;;;9.93;;
76591;SDS011;65481;47.600;19.682;2022-12-10T06:07:39;20.08;;;10.98;;
76591;SDS011;65481;47.600;19.682;2022-12-10T06:12:39;20.70;;;10.88;;
76591;SDS011;65481;47.600;19.682;2022-12-10T06:17:39;20.75;;;10.25;;
76591;SDS011;65481;47.600;19.682;2022-12-10T06:22:40;20.20;;;10.43;;
76591;SDS011;65481;47.600;19.682;2022-12-10T06:27:41;20.27;;;9.88;;
76591;SDS011;65481;47.600;19.682;2022-12-10T06:32:41;18.73;;;9.70;;
76591;SDS011;65481;47.600;19.682;2022-12-10T06:37:43;18.13;;;9.85;;
76591;SDS011;65481;47.600;19.682;2022-12-10T06:42:43;17.30;;;9.40;;
76591;SDS011;65481;47.600;19.682;2022-12-10T06:47:44;19.52;;;10.63;;
76591;SDS011;65481;47.600;19.682;2022-12-10T06:52:44;44.45;;;18.95;;
76591;SDS011;65481;47.600;19.682;2022-12-10T06:57:44;29.83;;;14.52;;
76591;SDS011;65481;47.600;19.682;2022-12-10T07:02:45;37.63;;;16.20;;
76591;SDS011;65481;47.600;19.682;2022-12-10T07:07:46;24.48;;;11.88;;
76591;SDS011;65481;47.600;19.682;2022-12-10T07:12:46;28.50;;;14.00;;
76591;SDS011;65481;47.600;19.682;2022-12-10T07:17:47;23.98;;;11.80;;
76591;SDS011;65481;47.600;19.682;2022-12-10T07:22:48;27.33;;;13.50;;
76591;SDS011;65481;47.600;19.682;2022-12-10T07:27:48;23.13;;;12.18;;
76591;SDS011;65481;47.600;19.682;2022-12-10T07:32:49;40.10;;;19.38;;
76591;SDS011;65481;47.600;19.682;2022-12-10T07:37:49;34.20;;;17.83;;
76591;SDS011;65481;47.600;19.682;2022-12-10T07:42:49;37.58;;;19.55;;
76591;SDS011;65481;47.600;19.682;2022-12-10T07:47:50;69.47;;;36.83;;
76591;SDS011;65481;47.600;19.682;2022-12-10T07:52:51;58.08;;;35.80;;
76591;SDS011;65481;47.600;19.682;2022-12-10T07:57:51;28.67;;;13.63;;
76591;SDS011;65481;47.600;19.682;2022-12-10T08:02:51;26.65;;;14.05;;
76591;SDS011;65481;47.600;19.682;2022-12-10T08:07:52;25.17;;;13.23;;
76591;SDS011;65481;47.600;19.682;2022-12-10T08:12:52;27.60;;;13.48;;
76591;SDS011;65481;47.600;19.682;2022-12-10T08:17:53;24.60;;;13.57;;
76591;SDS011;65481;47.600;19.682;2022-12-10T08:22:54;32.78;;;15.18;;
76591;SDS011;65481;47.600;19.682;2022-12-10T08:27:55;28.65;;;15.35;;
76591;SDS011;65481;47.600;19.682;2022-12-10T08:32:56;31.60;;;14.90;;
76591;SDS011;65481;47.600;19.682;2022-12-10T08:37:57;30.00;;;16.10;;
76591;SDS011;65481;47.600;19.682;2022-12-10T08:42:57;27.42;;;14.70;;
76591;SDS011;65481;47.600;19.682;2022-12-10T08:47:58;32.78;;;16.48;;
76591;SDS011;65481;47.600;19.682;2022-12-10T08:52:59;24.95;;;13.13;;
76591;SDS011;65481;47.600;19.682;2022-12-10T08:58:00;21.45;;;12.32;;
76591;SDS011;65481;47.600;19.682;2022-12-10T09:03:00;26.33;;;12.70;;
76591;SDS011;65481;47.600;19.682;2022-12-10T09:08:00;25.20;;;13.63;;
76591;SDS011;65481;47.600;19.682;2022-12-10T09:13:01;25.00;;;12.63;;
76591;SDS011;65481;47.600;19.682;2022-12-10T09:18:02;21.10;;;11.73;;
76591;SDS011;65481;47.600;19.682;2022-12-10T09:23:03;21.40;;;12.32;;
76591;SDS011;65481;47.600;19.682;2022-12-10T09:28:03;28.75;;;14.93;;
76591;SDS011;65481;47.600;19.682;2022-12-10T09:33:04;14.05;;;8.57;;
76591;SDS011;65481;47.600;19.682;2022-12-10T09:38:04;32.95;;;13.43;;
76591;SDS011;65481;47.600;19.682;2022-12-10T09:43:09;14.98;;;6.88;;
76591;SDS011;65481;47.600;19.682;2022-12-10T09:53:49;29.65;;;10.23;;
76591;SDS011;65481;47.600;19.682;2022-12-10T09:58:59;25.77;;;10.77;;
76591;SDS011;65481;47.600;19.682;2022-12-10T10:04:17;40.15;;;16.35;;
76591;SDS011;65481;47.600;19.682;2022-12-10T10:09:17;60.13;;;18.45;;
76591;SDS011;65481;47.600;19.682;2022-12-10T10:14:24;19.45;;;8.57;;
76591;SDS011;65481;47.600;19.682;2022-12-10T10:19:29;57.55;;;18.10;;
76591;SDS011;65481;47.600;19.682;2022-12-10T10:24:40;47.10;;;15.85;;
76591;SDS011;65481;47.600;19.682;2022-12-10T10:29:43;15.75;;;8.07;;
76591;SDS011;65481;47.600;19.682;2022-12-10T10:34:47;24.27;;;11.48;;
76591;SDS011;65481;47.600;19.682;2022-12-10T10:39:54;18.83;;;9.40;;
76591;SDS011;65481;47.600;19.682;2022-12-10T10:44:55;15.18;;;8.32;;
76591;SDS011;65481;47.600;19.682;2022-12-10T10:49:56;18.58;;;10.63;;
76591;SDS011;65481;47.600;19.682;2022-12-10T10:54:58;12.45;;;7.72;;
76591;SDS011;65481;47.600;19.682;2022-12-10T11:00:06;19.08;;;8.30;;
76591;SDS011;65481;47.600;19.682;2022-12-10T11:05:30;40.00;;;13.32;;
76591;SDS011;65481;47.600;19.682;2022-12-10T11:10:34;16.02;;;8.02;;
76591;SDS011;65481;47.600;19.682;2022-12-10T11:15:38;23.38;;;11.18;;
76591;SDS011;65481;47.600;19.682;2022-12-10T11:20:40;16.73;;;9.68;;
76591;SDS011;65481;47.600;19.682;2022-12-10T11:25:57;16.33;;;8.90;;
76591;SDS011;65481;47.600;19.682;2022-12-10T11:36:23;12.65;;;8.00;;
76591;SDS011;65481;47.600;19.682;2022-12-10T11:41:40;12.77;;;8.45;;
76591;SDS011;65481;47.600;19.682;2022-12-10T11:52:11;12.57;;;7.10;;
76591;SDS011;65481;47.600;19.682;2022-12-10T11:57:43;28.50;;;13.98;;
76591;SDS011;65481;47.600;19.682;2022-12-10T12:13:46;28.98;;;17.33;;
76591;SDS011;65481;47.600;19.682;2022-12-10T12:35:02;23.20;;;12.57;;
76591;SDS011;65481;47.600;19.682;2022-12-10T12:40:12;22.23;;;12.00;;
76591;SDS011;65481;47.600;19.682;2022-12-10T12:55:55;22.60;;;12.82;;
76591;SDS011;65481;47.600;19.682;2022-12-10T13:01:10;32.97;;;16.58;;
76591;SDS011;65481;47.600;19.682;2022-12-10T13:06:20;22.02;;;12.98;;
76591;SDS011;65481;47.600;19.682;2022-12-10T13:11:30;25.75;;;13.85;;
76591;SDS011;65481;47.600;19.682;2022-12-10T13:32:04;38.00;;;17.17;;
76591;SDS011;65481;47.600;19.682;2022-12-10T13:42:30;39.95;;;16.73;;
76591;SDS011;65481;47.600;19.682;2022-12-10T13:53:44;31.52;;;17.48;;
76591;SDS011;65481;47.600;19.682;2022-12-10T14:10:07;37.67;;;16.50;;
76591;SDS011;65481;47.600;19.682;2022-12-10T14:15:16;40.53;;;16.85;;
76591;SDS011;65481;47.600;19.682;2022-12-10T14:20:25;39.10;;;16.80;;
76591;SDS011;65481;47.600;19.682;2022-12-10T14:25:26;39.85;;;16.52;;
76591;SDS011;65481;47.600;19.682;2022-12-10T14:30:26;41.75;;;16.77;;
76591;SDS011;65481;47.600;19.682;2022-12-10T14:35:28;42.28;;;17.13;;
76591;SDS011;65481;47.600;19.682;2022-12-10T14:40:30;142.32;;;24.80;;
76591;SDS011;65481;47.600;19.682;2022-12-10T14:45:38;39.65;;;20.42;;
76591;SDS011;65481;47.600;19.682;2022-12-10T14:50:51;48.03;;;21.08;;
76591;SDS011;65481;47.600;19.682;2022-12-10T14:55:53;47.15;;;23.17;;
76591;SDS011;65481;47.600;19.682;2022-12-10T15:00:55;51.88;;;21.33;;
76591;SDS011;65481;47.600;19.682;2022-12-10T15:05:58;51.63;;;22.67;;
76591;SDS011;65481;47.600;19.682;2022-12-10T15:11:03;41.95;;;20.58;;
76591;SDS011;65481;47.600;19.682;2022-12-10T15:16:04;40.65;;;18.50;;
76591;SDS011;65481;47.600;19.682;2022-12-10T15:26:21;76.07;;;25.25;;
76591;SDS011;65481;47.600;19.682;2022-12-10T15:31:29;37.20;;;17.63;;
76591;SDS011;65481;47.600;19.682;2022-12-10T15:36:39;35.83;;;17.80;;
76591;SDS011;65481;47.600;19.682;2022-12-10T15:42:03;51.40;;;22.13;;
76591;SDS011;65481;47.600;19.682;2022-12-10T15:47:19;45.90;;;21.98;;
76591;SDS011;65481;47.600;19.682;2022-12-10T15:52:26;41.58;;;20.23;;
76591;SDS011;65481;47.600;19.682;2022-12-10T15:57:32;43.85;;;21.05;;
76591;SDS011;65481;47.600;19.682;2022-12-10T16:08:25;41.28;;;20.17;;
76591;SDS011;65481;47.600;19.682;2022-12-10T16:13:29;46.08;;;23.80;;
76591;SDS011;65481;47.600;19.682;2022-12-10T16:18:33;52.10;;;24.58;;
76591;SDS011;65481;47.600;19.682;2022-12-10T16:23:38;61.10;;;28.98;;
76591;SDS011;65481;47.600;19.682;2022-12-10T16:28:39;54.83;;;27.27;;
76591;SDS011;65481;47.600;19.682;2022-12-10T16:33:41;69.82;;;31.15;;
76591;SDS011;65481;47.600;19.682;2022-12-10T16:38:42;47.20;;;23.50;;
76591;SDS011;65481;47.600;19.682;2022-12-10T16:43:43;51.30;;;26.90;;
76591;SDS011;65481;47.600;19.682;2022-12-10T16:48:45;74.35;;;33.25;;
76591;SDS011;65481;47.600;19.682;2022-12-10T16:53:46;127.13;;;63.20;;
76591;SDS011;65481;47.600;19.682;2022-12-10T16:58:47;83.25;;;43.45;;
76591;SDS011;65481;47.600;19.682;2022-12-10T17:03:48;52.72;;;29.98;;
76591;SDS011;65481;47.600;19.682;2022-12-10T17:08:50;50.72;;;25.55;;
76591;SDS011;65481;47.600;19.682;2022-12-10T17:13:50;39.03;;;18.55;;
76591;SDS011;65481;47.600;19.682;2022-12-10T17:18:51;49.47;;;23.48;;
76591;SDS011;65481;47.600;19.682;2022-12-10T17:23:51;40.50;;;19.67;;
76591;SDS011;65481;47.600;19.682;2022-12-10T17:28:52;38.72;;;20.33;;
76591;SDS011;65481;47.600;19.682;2022-12-10T17:33:55;35.80;;;18.00;;
76591;SDS011;65481;47.600;19.682;2022-12-10T17:38:56;27.75;;;16.15;;
76591;SDS011;65481;47.600;19.682;2022-12-10T17:43:57;42.05;;;20.23;;
76591;SDS011;65481;47.600;19.682;2022-12-10T17:48:58;36.25;;;18.10;;
76591;SDS011;65481;47.600;19.682;2022-12-10T17:53:58;54.05;;;26.20;;
76591;SDS011;65481;47.600;19.682;2022-12-10T17:58:59;47.78;;;23.02;;
76591;SDS011;65481;47.600;19.682;2022-12-10T18:04:00;47.78;;;22.52;;
76591;SDS011;65481;47.600;19.682;2022-12-10T18:09:01;46.13;;;25.02;;
76591;SDS011;65481;47.600;19.682;2022-12-10T18:14:02;80.45;;;32.25;;
76591;SDS011;65481;47.600;19.682;2022-12-10T18:19:06;50.88;;;26.17;;
76591;SDS011;65481;47.600;19.682;2022-12-10T18:24:12;69.95;;;31.55;;
76591;SDS011;65481;47.600;19.682;2022-12-10T18:29:14;40.40;;;21.90;;
76591;SDS011;65481;47.600;19.682;2022-12-10T18:34:15;41.15;;;22.55;;
76591;SDS011;65481;47.600;19.682;2022-12-10T18:44:20;43.53;;;24.58;;
76591;SDS011;65481;47.600;19.682;2022-12-10T18:49:23;41.50;;;23.67;;
76591;SDS011;65481;47.600;19.682;2022-12-10T18:54:27;40.17;;;22.73;;
76591;SDS011;65481;47.600;19.682;2022-12-10T18:59:27;36.95;;;21.27;;
76591;SDS011;65481;47.600;19.682;2022-12-10T19:04:28;32.28;;;19.50;;
76591;SDS011;65481;47.600;19.682;2022-12-10T19:09:29;38.00;;;20.55;;
76591;SDS011;65481;47.600;19.682;2022-12-10T19:14:31;40.63;;;20.85;;
76591;SDS011;65481;47.600;19.682;2022-12-10T19:19:32;38.63;;;19.55;;
76591;SDS011;65481;47.600;19.682;2022-12-10T19:24:34;39.20;;;21.45;;
76591;SDS011;65481;47.600;19.682;2022-12-10T19:29:35;37.75;;;21.77;;
76591;SDS011;65481;47.600;19.682;2022-12-10T19:34:38;33.25;;;18.20;;
76591;SDS011;65481;47.600;19.682;2022-12-10T19:39:39;35.08;;;17.13;;
76591;SDS011;65481;47.600;19.682;2022-12-10T19:44:40;30.23;;;17.10;;
76591;SDS011;65481;47.600;19.682;2022-12-10T19:49:41;28.95;;;16.75;;
76591;SDS011;65481;47.600;19.682;2022-12-10T19:54:42;39.33;;;20.67;;
76591;SDS011;65481;47.600;19.682;2022-12-10T19:59:43;44.10;;;22.38;;
76591;SDS011;65481;47.600;19.682;2022-12-10T20:04:44;37.90;;;19.10;;
76591;SDS011;65481;47.600;19.682;2022-12-10T20:09:45;30.70;;;17.13;;
76591;SDS011;65481;47.600;19.682;2022-12-10T20:14:46;27.98;;;16.83;;
76591;SDS011;65481;47.600;19.682;2022-12-10T20:19:47;31.08;;;17.65;;
76591;SDS011;65481;47.600;19.682;2022-12-10T20:24:47;28.17;;;17.02;;
76591;SDS011;65481;47.600;19.682;2022-12-10T20:29:49;24.08;;;14.20;;
76591;SDS011;65481;47.600;19.682;2022-12-10T20:34:50;27.17;;;14.77;;
76591;SDS011;65481;47.600;19.682;2022-12-10T20:39:51;26.73;;;14.77;;
76591;SDS011;65481;47.600;19.682;2022-12-10T20:44:52;26.05;;;15.50;;
76591;SDS011;65481;47.600;19.682;2022-12-10T20:49:53;22.20;;;13.35;;
76591;SDS011;65481;47.600;19.682;2022-12-10T20:54:55;21.58;;;13.40;;
76591;SDS011;65481;47.600;19.682;2022-12-10T20:59:56;25.73;;;14.52;;
76591;SDS011;65481;47.600;19.682;2022-12-10T21:04:56;22.27;;;12.77;;
76591;SDS011;65481;47.600;19.682;2022-12-10T21:09:58;25.65;;;13.27;;
76591;SDS011;65481;47.600;19.682;2022-12-10T21:14:58;24.70;;;14.90;;
76591;SDS011;65481;47.600;19.682;2022-12-10T21:19:59;18.80;;;11.88;;
76591;SDS011;65481;47.600;19.682;2022-12-10T21:25:01;20.38;;;12.48;;
76591;SDS011;65481;47.600;19.682;2022-12-10T21:30:03;18.48;;;11.65;;
76591;SDS011;65481;47.600;19.682;2022-12-10T21:35:04;15.52;;;10.93;;
76591;SDS011;65481;47.600;19.682;2022-12-10T21:40:07;15.55;;;10.30;;
76591;SDS011;65481;47.600;19.682;2022-12-10T21:45:09;14.55;;;9.93;;
76591;SDS011;65481;47.600;19.682;2022-12-10T21:50:10;14.10;;;8.38;;
76591;SDS011;65481;47.600;19.682;2022-12-10T21:55:11;14.23;;;8.48;;
76591;SDS011;65481;47.600;19.682;2022-12-10T22:00:12;11.73;;;7.43;;
76591;SDS011;65481;47.600;19.682;2022-12-10T22:05:13;10.35;;;7.47;;
76591;SDS011;65481;47.600;19.682;2022-12-10T22:10:14;10.70;;;7.43;;
76591;SDS011;65481;47.600;19.682;2022-12-10T22:15:15;13.60;;;6.05;;
76591;SDS011;65481;47.600;19.682;2022-12-10T22:20:15;10.13;;;6.90;;
76591;SDS011;65481;47.600;19.682;2022-12-10T22:25:16;11.10;;;7.10;;
76591;SDS011;65481;47.600;19.682;2022-12-10T22:30:16;9.00;;;5.75;;
76591;SDS011;65481;47.600;19.682;2022-12-10T22:35:17;10.27;;;6.30;;
76591;SDS011;65481;47.600;19.682;2022-12-10T22:40:18;7.80;;;4.72;;
76591;SDS011;65481;47.600;19.682;2022-12-10T22:45:20;8.63;;;5.55;;
76591;SDS011;65481;47.600;19.682;2022-12-10T22:50:20;6.05;;;3.97;;
76591;SDS011;65481;47.600;19.682;2022-12-10T22:55:21;5.10;;;3.63;;
76591;SDS011;65481;47.600;19.682;2022-12-10T23:00:22;5.68;;;3.22;;
76591;SDS011;65481;47.600;19.682;2022-12-10T23:05:23;5.85;;;2.70;;
76591;SDS011;65481;47.600;19.682;2022-12-10T23:10:23;4.22;;;2.88;;
76591;SDS011;65481;47.600;19.682;2022-12-10T23:15:24;5.18;;;2.83;;
76591;SDS011;65481;47.600;19.682;2022-12-10T23:20:25;5.13;;;2.90;;
76591;SDS011;65481;47.600;19.682;2022-12-10T23:25:26;4.70;;;2.80;;
76591;SDS011;65481;47.600;19.682;2022-12-10T23:30:27;4.00;;;2.50;;
76591;SDS011;65481;47.600;19.682;2022-12-10T23:35:27;2.92;;;2.10;;
76591;SDS011;65481;47.600;19.682;2022-12-10T23:40:28;5.25;;;2.60;;
76591;SDS011;65481;47.600;19.682;2022-12-10T23:45:28;4.65;;;2.33;;
76591;SDS011;65481;47.600;19.682;2022-12-10T23:50:28;4.55;;;2.47;;
76591;SDS011;65481;47.600;19.682;2022-12-10T23:55:32;5.22;;;2.70;;
